createdAt,value
2023-05-18T00:07:01.737Z,0.02
2023-05-18T00:11:56.158Z,0.01
2023-05-18T01:32:54.550Z,0
2023-05-18T01:35:35.842Z,0.01
2023-05-18T01:49:57.351Z,0
2023-05-18T01:52:03.157Z,0.01
2023-05-18T01:54:56.674Z,0
2023-05-18T01:57:36.116Z,0.01
2023-05-18T02:00:01.743Z,0
2023-05-18T02:02:13.639Z,0.01
2023-05-18T02:04:11.450Z,0
2023-05-18T02:06:57.159Z,0.01
2023-05-18T02:23:55.093Z,0.02
2023-05-18T02:25:51.205Z,0.01
2023-05-18T02:28:35.166Z,0.02
2023-05-18T02:33:21.219Z,0.03
2023-05-18T02:38:13.268Z,0.05
2023-05-18T02:40:49.467Z,0.07
2023-05-18T02:43:11.678Z,0.1
2023-05-18T02:45:19.374Z,0.14
2023-05-18T02:48:15.621Z,0.21
2023-05-18T02:50:57.830Z,0.28
2023-05-18T02:53:25.990Z,0.4
2023-05-18T02:55:40.126Z,0.54
2023-05-18T02:57:40.464Z,0.69
2023-05-18T03:00:28.699Z,1.03
2023-05-18T03:03:03.007Z,1.44
2023-05-18T03:05:23.489Z,1.99
2023-05-18T03:07:29.968Z,2.75
2023-05-18T03:10:24.354Z,4.09
2023-05-18T03:13:04.924Z,5.73
2023-05-18T03:15:31.649Z,7.98
2023-05-18T03:17:44.003Z,11.06
2023-05-18T03:19:42.711Z,14.15
2023-05-18T03:22:29.258Z,20.04
2023-05-18T03:25:01.772Z,26.23
2023-05-18T03:27:20.250Z,33.55
2023-05-18T03:29:24.971Z,40.45
2023-05-18T03:32:17.439Z,52.76
2023-05-18T03:34:56.059Z,64.86
2023-05-18T03:37:20.402Z,78.54
2023-05-18T03:39:31.155Z,93.6
2023-05-18T03:41:27.977Z,106.76
2023-05-18T03:44:12.834Z,124.36
2023-05-18T03:46:43.722Z,147.12
2023-05-18T03:49:00.464Z,163.6
2023-05-18T03:51:03.511Z,185.6
2023-05-18T03:53:54.446Z,209.3
2023-05-18T03:56:31.392Z,240.5
2023-05-18T03:58:54.185Z,267.6
2023-05-18T04:01:03.205Z,292.2
2023-05-18T04:04:00.112Z,326.8
2023-05-18T04:06:42.934Z,361.2
2023-05-18T04:09:12.101Z,393.1
2023-05-18T04:11:27.253Z,434.7
2023-05-18T04:13:28.491Z,472.3
2023-05-18T04:16:17.704Z,525.4
2023-05-18T04:18:52.849Z,573.6
2023-05-18T04:21:13.913Z,620
2023-05-18T04:23:21.239Z,654
2023-05-18T04:26:16.534Z,699.5
2023-05-18T04:28:57.360Z,746.2
2023-05-18T04:31:24.667Z,783.6
2023-05-18T04:33:38.118Z,820.8
2023-05-18T04:35:37.467Z,849.2
2023-05-18T04:38:24.779Z,884.4
2023-05-18T04:40:58.306Z,915.5
2023-05-18T04:43:17.860Z,949.1
2023-05-18T04:45:23.367Z,969.2
2023-05-18T04:48:17.036Z,996.4
2023-05-18T04:50:56.666Z,1022.4
2023-05-18T04:53:22.835Z,1049.6
2023-05-18T04:55:34.179Z,1075.2
2023-05-18T04:57:31.681Z,1097.6
2023-05-18T05:00:17.315Z,1127.3
2023-05-18T05:02:48.909Z,1152.9
2023-05-18T05:05:06.707Z,1171.8
2023-05-18T05:07:10.540Z,1187.8
2023-05-18T05:10:02.298Z,1216
2023-05-18T05:12:40.290Z,1235.5
2023-05-18T05:15:04.206Z,1257.6
2023-05-18T05:17:14.058Z,1280
2023-05-18T05:19:09.687Z,1293.7
2023-05-18T05:21:53.630Z,1315.8
2023-05-18T05:24:24.335Z,1342
2023-05-18T05:26:39.366Z,1359.3
2023-05-18T05:28:41.653Z,1373.4
2023-05-18T05:31:31.545Z,1395.8
2023-05-18T05:34:07.553Z,1412.4
2023-05-18T05:36:29.753Z,1432.3
2023-05-18T05:38:37.854Z,1447
2023-05-18T05:41:33.912Z,1468.8
2023-05-18T05:44:16.101Z,1489.9
2023-05-18T05:46:44.374Z,1505.9
2023-05-18T05:48:58.577Z,1518
2023-05-18T05:50:59.053Z,1531.5
2023-05-18T05:53:47.340Z,1545.6
2023-05-18T05:56:21.697Z,1567.3
2023-05-18T05:58:41.872Z,1580.1
2023-05-18T06:00:48.402Z,1593.6
2023-05-18T06:03:42.762Z,1607
2023-05-18T06:06:23.060Z,1621.1
2023-05-18T06:08:49.630Z,1636.4
2023-05-18T06:11:01.676Z,1653
2023-05-18T06:13:00.154Z,1663
2023-05-18T06:15:46.867Z,1693
2023-05-18T06:18:19.471Z,1715
2023-05-18T06:20:38.133Z,1726
2023-05-18T06:22:42.991Z,1744
2023-05-18T06:25:35.786Z,1780
2023-05-18T06:28:14.618Z,1814
2023-05-18T06:30:39.305Z,1840
2023-05-18T06:32:50.308Z,1861
2023-05-18T06:34:47.165Z,1880
2023-05-18T06:37:31.968Z,1908
2023-05-18T06:40:02.964Z,1922
2023-05-18T06:42:20.015Z,1936
2023-05-18T06:44:22.901Z,1949
2023-05-18T06:47:14.094Z,1954
2023-05-18T06:49:51.145Z,1973
2023-05-18T06:52:14.158Z,1984
2023-05-18T06:54:23.304Z,1999
2023-05-18T06:57:20.401Z,2030
2023-05-18T07:00:03.723Z,2053
2023-05-18T07:02:32.136Z,2065
2023-05-18T07:04:47.323Z,2088
2023-05-18T07:06:48.547Z,2090
2023-05-18T07:09:37.526Z,2092
2023-05-18T07:12:12.864Z,2101
2023-05-18T07:14:34.072Z,2104
2023-05-18T07:16:41.418Z,2122
2023-05-18T07:19:36.682Z,2126
2023-05-18T07:22:18.061Z,2133
2023-05-18T07:24:45.338Z,2138
2023-05-18T07:27:00.723Z,2140
2023-05-18T07:28:57.794Z,2152
2023-05-18T07:31:45.145Z,2158
2023-05-18T07:34:18.322Z,2165
2023-05-18T07:36:37.768Z,2175
2023-05-18T07:38:43.295Z,2171
2023-05-18T07:41:36.639Z,2176
2023-05-18T07:44:16.262Z,2174
2023-05-18T07:46:41.878Z,2160
2023-05-18T07:48:53.425Z,2176
2023-05-18T07:50:51.232Z,2168
2023-05-18T07:53:36.376Z,2144
2023-05-18T07:55:49.126Z,2177
2023-05-18T08:00:34.303Z,2179
2023-05-18T08:03:07.158Z,2184
2023-05-18T08:05:25.841Z,2189
2023-05-18T08:07:30.494Z,2169
2023-05-18T08:10:23.315Z,2183
2023-05-18T08:13:02.164Z,2184
2023-05-18T08:15:26.891Z,2180
2023-05-18T08:17:37.973Z,2182
2023-05-18T08:19:34.964Z,2167
2023-05-18T08:22:19.848Z,2165
2023-05-18T08:24:50.690Z,2174
2023-05-18T08:27:07.710Z,2176
2023-05-18T08:29:10.713Z,2168
2023-05-18T08:32:01.458Z,2172
2023-05-18T08:34:38.462Z,2171
2023-05-18T08:37:01.323Z,2168
2023-05-18T08:39:10.264Z,2183
2023-05-18T08:42:07.302Z,2192
2023-05-18T08:44:49.642Z,2189
2023-05-18T08:47:18.464Z,2200
2023-05-18T08:49:33.327Z,2211
2023-05-18T08:51:34.417Z,2224
2023-05-18T08:54:23.275Z,2231
2023-05-18T08:56:58.148Z,2295
2023-05-18T08:59:19.363Z,2267
2023-05-18T09:01:26.426Z,2280
2023-05-18T09:04:21.284Z,2300
2023-05-18T09:07:02.383Z,2329
2023-05-18T09:09:29.481Z,2337
2023-05-18T09:11:42.588Z,2346
2023-05-18T09:13:41.936Z,2367
2023-05-18T09:16:29.120Z,2403
2023-05-18T09:19:02.127Z,2429
2023-05-18T09:21:21.192Z,2475
2023-05-18T09:23:26.682Z,1859
2023-05-18T09:26:19.898Z,2762
2023-05-18T09:28:59.217Z,3014
2023-05-18T09:31:25.064Z,2472
2023-05-18T09:33:36.648Z,3092
2023-05-18T09:35:33.901Z,1994
2023-05-18T09:38:19.671Z,2863
2023-05-18T09:40:51.449Z,2895
2023-05-18T09:43:09.180Z,3102
2023-05-18T09:45:13.144Z,3264
2023-05-18T09:48:05.073Z,1888
2023-05-18T09:50:42.773Z,2067
2023-05-18T09:53:06.591Z,3175
2023-05-18T09:55:16.678Z,2043
2023-05-18T09:57:12.728Z,3124
2023-05-18T09:59:56.426Z,3447
2023-05-18T10:02:26.397Z,3406
2023-05-18T10:04:42.436Z,3715
2023-05-18T10:06:44.388Z,3754
2023-05-18T10:09:34.505Z,3548
2023-05-18T10:12:10.621Z,1668
2023-05-18T10:14:32.536Z,2654
2023-05-18T10:16:40.764Z,3937
2023-05-18T10:19:36.837Z,3399
2023-05-18T10:22:18.810Z,3187
2023-05-18T10:24:46.834Z,3134
2023-05-18T10:27:00.697Z,3648
2023-05-18T10:29:01.042Z,3738
2023-05-18T10:31:49.179Z,3246
2023-05-18T10:34:23.523Z,3370
2023-05-18T10:36:43.917Z,3248
2023-05-18T10:38:50.252Z,3420
2023-05-18T10:41:44.599Z,4428
2023-05-18T10:44:25.032Z,5162
2023-05-18T10:46:51.411Z,4327
2023-05-18T10:49:03.709Z,3874
2023-05-18T10:51:02.304Z,3964
2023-05-18T10:53:48.738Z,3585
2023-05-18T10:56:21.142Z,3302
2023-05-18T10:58:39.822Z,2359
2023-05-18T11:00:44.413Z,3280
2023-05-18T11:03:36.926Z,3381
2023-05-18T11:06:15.664Z,3253
2023-05-18T11:08:40.270Z,3417
2023-05-18T11:10:51.105Z,3495
2023-05-18T11:12:47.883Z,1938
2023-05-18T11:15:32.590Z,2550
2023-05-18T11:18:02.896Z,2464
2023-05-18T11:20:19.497Z,3152
2023-05-18T11:22:22.409Z,3185
2023-05-18T11:25:13.247Z,1710
2023-05-18T11:27:49.923Z,2801
2023-05-18T11:30:15.744Z,3381
2023-05-18T11:32:29.102Z,3133
2023-05-18T11:35:18.659Z,3297
2023-05-18T11:38:01.612Z,3138
2023-05-18T11:40:30.699Z,3077
2023-05-18T11:42:45.517Z,3097
2023-05-18T11:44:46.713Z,3210
2023-05-18T11:47:35.756Z,3388
2023-05-18T11:50:10.739Z,3564
2023-05-18T11:52:31.714Z,3304
2023-05-18T11:54:38.929Z,3176
2023-05-18T11:57:33.972Z,3115
2023-05-18T12:00:15.026Z,3563
2023-05-18T12:02:42.399Z,3943
2023-05-18T12:04:55.536Z,4431
2023-05-18T12:06:54.771Z,4628
2023-05-18T12:09:41.646Z,2818
2023-05-18T12:12:15.024Z,3769
2023-05-18T12:14:34.367Z,3313
2023-05-18T12:16:39.960Z,3264
2023-05-18T12:19:33.311Z,2604
2023-05-18T12:22:12.647Z,2176
2023-05-18T12:24:38.049Z,4014
2023-05-18T12:26:49.662Z,3793
2023-05-18T12:28:47.315Z,3644
2023-05-18T12:31:32.778Z,1860
2023-05-18T12:34:04.440Z,2115
2023-05-18T12:36:22.098Z,2858
2023-05-18T12:38:25.725Z,2314
2023-05-18T12:41:17.429Z,3372
2023-05-18T12:43:55.077Z,3509
2023-05-18T12:46:18.769Z,3889
2023-05-18T12:48:28.564Z,2831
2023-05-18T12:50:24.424Z,2587
2023-05-18T12:53:08.120Z,1945
2023-05-18T12:55:37.785Z,3796
2023-05-18T12:57:53.735Z,2085
2023-05-18T12:59:55.254Z,3609
2023-05-18T13:02:45.060Z,3445
2023-05-18T13:05:20.978Z,3356
2023-05-18T13:07:42.923Z,1901
2023-05-18T13:09:50.881Z,3969
2023-05-18T13:12:47.114Z,4034
2023-05-18T13:15:28.926Z,4079
2023-05-18T13:17:56.837Z,4176
2023-05-18T13:20:10.691Z,3928
2023-05-18T13:22:10.878Z,3452
2023-05-18T13:24:58.776Z,2469
2023-05-18T13:27:32.721Z,1579.5
2023-05-18T13:29:52.914Z,1999
2023-05-18T13:31:59.213Z,1765
2023-05-18T13:34:53.194Z,3008
2023-05-18T13:37:33.419Z,2984
2023-05-18T13:39:59.676Z,3264
2023-05-18T13:42:12.209Z,3820
2023-05-18T13:44:10.451Z,3833
2023-05-18T13:46:56.701Z,3226
2023-05-18T13:49:28.919Z,2891
2023-05-18T13:51:46.716Z,2918
2023-05-18T13:53:51.147Z,2824
2023-05-18T13:56:43.329Z,3292
2023-05-18T13:59:21.569Z,3479
2023-05-18T14:01:46.126Z,2963
2023-05-18T14:03:56.517Z,2773
2023-05-18T14:05:53.033Z,2745
2023-05-18T14:08:37.531Z,2773
2023-05-18T14:11:08.055Z,2265
2023-05-18T14:13:24.584Z,2979
2023-05-18T14:15:27.395Z,3151
2023-05-18T14:18:18.078Z,2931
2023-05-18T14:20:54.583Z,2810
2023-05-18T14:23:17.194Z,2714
2023-05-18T14:25:26.038Z,2649
2023-05-18T14:28:22.676Z,2611
2023-05-18T14:31:05.344Z,2535
2023-05-18T14:33:34.222Z,2526
2023-05-18T14:35:49.061Z,2396
2023-05-18T14:37:49.938Z,2677
2023-05-18T14:40:38.794Z,2673
2023-05-18T14:43:13.230Z,2523
2023-05-18T14:45:34.144Z,1335.6
2023-05-18T14:47:41.286Z,2437
2023-05-18T14:50:38.272Z,2401
2023-05-18T14:53:17.105Z,2373
2023-05-18T14:55:44.025Z,2307
2023-05-18T14:57:57.245Z,2270
2023-05-18T14:59:56.443Z,2257
2023-05-18T15:02:43.536Z,2200
2023-05-18T15:05:16.694Z,2186
2023-05-18T15:07:35.925Z,2289
2023-05-18T15:09:41.169Z,2144
2023-05-18T15:12:34.386Z,2081
2023-05-18T15:15:13.651Z,2080
2023-05-18T15:17:38.891Z,2046
2023-05-18T15:19:50.117Z,1975
2023-05-18T15:21:47.610Z,1968
2023-05-18T15:24:32.890Z,1956
2023-05-18T15:27:04.144Z,1932
2023-05-18T15:29:21.694Z,1878
2023-05-18T15:34:16.126Z,2026
2023-05-18T15:36:53.690Z,2177
2023-05-18T15:39:17.217Z,2455
2023-05-18T15:41:26.788Z,2288
2023-05-18T15:43:22.648Z,1988
2023-05-18T15:46:06.308Z,1757
2023-05-18T15:48:35.843Z,1591
2023-05-18T15:50:51.462Z,1185.9
2023-05-18T15:52:53.315Z,1496.3
2023-05-18T15:55:42.960Z,1725
2023-05-18T15:58:18.693Z,1966
2023-05-18T16:00:40.591Z,2545
2023-05-18T16:02:48.671Z,2638
2023-05-18T16:05:44.184Z,2048
2023-05-18T16:08:26.116Z,1584
2023-05-18T16:10:54.042Z,1459.2
2023-05-18T16:13:08.035Z,1232.9
2023-05-18T16:15:08.235Z,1090.8
2023-05-18T16:17:56.232Z,1320.9
2023-05-18T16:20:30.505Z,1304.3
2023-05-18T16:22:50.270Z,1408
2023-05-18T16:24:56.102Z,1378.5
2023-05-18T16:27:50.240Z,1370.8
2023-05-18T16:30:30.454Z,1390.7
2023-05-18T16:32:56.536Z,1338.2
2023-05-18T16:35:08.806Z,1308.1
2023-05-18T16:37:07.156Z,1268.8
2023-05-18T16:39:53.713Z,1228.8
2023-05-18T16:42:25.930Z,1198
2023-05-18T16:44:44.232Z,1156.8
2023-05-18T16:46:48.920Z,1125.1
2023-05-18T16:49:41.269Z,1105.6
2023-05-18T16:52:19.721Z,1111.3
2023-05-18T16:54:44.180Z,1090.8
2023-05-18T16:56:54.817Z,1083.2
2023-05-18T16:58:51.454Z,1078.4
2023-05-18T17:01:36.038Z,1060.4
2023-05-18T17:04:06.844Z,1048.6
2023-05-18T17:06:23.455Z,1031.6
2023-05-18T17:08:26.195Z,1020.1
2023-05-18T17:11:17.045Z,994.8
2023-05-18T17:13:53.851Z,979.2
2023-05-18T17:16:16.196Z,966
2023-05-18T17:18:25.105Z,947.5
2023-05-18T17:21:21.835Z,931.8
2023-05-18T17:24:04.569Z,915.2
2023-05-18T17:26:33.402Z,901.1
2023-05-18T17:28:48.353Z,885.4
2023-05-18T17:30:49.374Z,867.2
2023-05-18T17:33:38.167Z,850.2
2023-05-18T17:36:13.227Z,832.3
2023-05-18T17:38:34.361Z,818.2
2023-05-18T17:40:41.406Z,801.2
2023-05-18T17:43:36.520Z,779.8
2023-05-18T17:46:17.811Z,765.4
2023-05-18T17:48:44.891Z,751.3
2023-05-18T17:50:58.017Z,731.8
2023-05-18T17:52:57.330Z,722.5
2023-05-18T17:55:44.546Z,701.4
2023-05-18T17:58:17.747Z,686
2023-05-18T18:00:37.167Z,668.4
2023-05-18T18:02:42.537Z,645.2
2023-05-18T18:05:35.727Z,622.7
2023-05-18T18:08:14.659Z,593.4
2023-05-18T18:10:40.048Z,568.4
2023-05-18T18:12:51.542Z,549.4
2023-05-18T18:14:49.230Z,533.2
2023-05-18T18:17:34.886Z,498.4
2023-05-18T18:19:47.506Z,479.5
2023-05-18T18:21:46.220Z,465.1
2023-05-18T18:24:32.897Z,430
2023-05-18T18:27:05.724Z,388.9
2023-05-18T18:29:24.496Z,366.5
2023-05-18T18:31:29.290Z,340.3
2023-05-18T18:34:22.077Z,306.4
2023-05-18T18:37:00.903Z,282.1
2023-05-18T18:39:25.759Z,259.9
2023-05-18T18:41:36.793Z,237.6
2023-05-18T18:43:33.765Z,219.7
2023-05-18T18:46:18.661Z,198.3
2023-05-18T18:48:49.563Z,173.7
2023-05-18T18:51:06.429Z,158.6
2023-05-18T18:53:09.310Z,143.92
2023-05-18T18:56:00.151Z,122.52
2023-05-18T18:58:36.802Z,103.52
2023-05-18T19:00:59.928Z,89.36
2023-05-18T19:03:09.012Z,78.66
2023-05-18T19:06:06.141Z,64.5
2023-05-18T19:08:49.284Z,52.28
2023-05-18T19:11:18.357Z,42.92
2023-05-18T19:13:33.501Z,34.66
2023-05-18T19:15:35.142Z,29.12
2023-05-18T19:18:24.070Z,21.82
2023-05-18T19:20:59.397Z,16.91
2023-05-18T19:23:20.732Z,12.89
2023-05-18T19:25:28.134Z,10.23
2023-05-18T19:28:23.344Z,7.07
2023-05-18T19:31:04.768Z,4.78
2023-05-18T19:33:32.113Z,3.42
2023-05-18T19:35:45.572Z,2.45
2023-05-18T19:37:45.109Z,1.88
2023-05-18T19:40:32.666Z,1.26
2023-05-18T19:43:06.220Z,0.9
2023-05-18T19:45:25.782Z,0.64
2023-05-18T19:47:31.492Z,0.5
2023-05-18T19:50:24.585Z,0.35
2023-05-18T19:53:04.138Z,0.26
2023-05-18T19:55:29.923Z,0.18
2023-05-18T19:57:41.600Z,0.13
2023-05-18T19:59:39.267Z,0.1
2023-05-18T20:02:25.040Z,0.07
2023-05-18T20:04:56.691Z,0.05
2023-05-18T20:07:14.392Z,0.04
2023-05-18T20:09:18.479Z,0.03
2023-05-18T20:14:48.037Z,0.02
2023-05-18T20:28:47.645Z,0.01
2023-05-18T21:36:51.181Z,0
2023-05-18T21:39:35.614Z,0.01
2023-05-18T21:49:15.737Z,0
2023-05-18T21:51:52.129Z,0.01
2023-05-18T22:06:46.359Z,0
2023-05-18T22:14:11.067Z,0.01
2023-05-18T22:16:32.012Z,0
2023-05-18T22:28:54.829Z,0.01
2023-05-18T22:30:54.152Z,0
2023-05-18T22:38:33.727Z,0.01
2023-05-18T22:43:32.573Z,0
2023-05-18T22:46:11.668Z,0.01
2023-05-18T22:48:36.847Z,0
2023-05-18T22:50:48.354Z,0.01
2023-05-18T22:52:45.841Z,0
2023-05-18T22:55:31.140Z,0.01
2023-05-18T22:58:02.733Z,0
